createdAt,value
2023-01-19T00:00:38.749Z,8.27
2023-01-19T00:03:05.822Z,8.50
2023-01-19T00:05:33.421Z,8.60
2023-01-19T00:08:13.746Z,8.10
2023-01-19T00:10:40.166Z,8.07
2023-01-19T00:13:06.332Z,8.80
2023-01-19T00:15:32.474Z,8.43
2023-01-19T00:17:59.229Z,7.97
2023-01-19T00:20:25.455Z,7.93
2023-01-19T00:22:51.662Z,7.70
2023-01-19T00:25:17.882Z,7.80
2023-01-19T00:27:48.472Z,8.73
2023-01-19T00:30:15.003Z,7.57
2023-01-19T00:32:41.197Z,8.23
2023-01-19T00:35:08.244Z,8.17
2023-01-19T00:37:34.376Z,7.27
2023-01-19T00:40:00.574Z,7.33
2023-01-19T00:42:43.559Z,8.17
2023-01-19T00:45:12.384Z,7.27
2023-01-19T00:47:38.838Z,7.07
2023-01-19T00:50:06.030Z,7.13
2023-01-19T00:52:32.885Z,7.93
2023-01-19T00:54:59.037Z,7.87
2023-01-19T00:57:26.318Z,7.70
2023-01-19T00:59:52.435Z,7.80
2023-01-19T01:02:18.810Z,8.47
2023-01-19T01:04:45.066Z,7.53
2023-01-19T01:07:11.232Z,7.27
2023-01-19T01:09:37.989Z,7.70
2023-01-19T01:12:04.398Z,8.47
2023-01-19T01:14:32.427Z,9.27
2023-01-19T01:16:58.594Z,9.30
2023-01-19T01:19:24.744Z,9.73
2023-01-19T01:21:50.961Z,9.90
2023-01-19T01:24:17.999Z,9.60
2023-01-19T01:26:44.968Z,9.93
2023-01-19T01:29:11.282Z,10.23
2023-01-19T01:31:37.471Z,9.30
2023-01-19T01:34:04.143Z,8.23
2023-01-19T01:36:32.593Z,7.83
2023-01-19T01:38:58.766Z,8.27
2023-01-19T01:41:25.798Z,7.40
2023-01-19T01:43:57.532Z,8.93
2023-01-19T01:46:24.868Z,7.40
2023-01-19T01:48:56.306Z,8.27
2023-01-19T01:51:24.938Z,8.17
2023-01-19T01:53:57.956Z,8.00
2023-01-19T01:56:29.902Z,7.60
2023-01-19T01:58:57.379Z,7.57
2023-01-19T02:01:41.979Z,7.40
2023-01-19T02:04:08.494Z,7.80
2023-01-19T02:06:53.355Z,7.40
2023-01-19T02:09:37.825Z,7.47
2023-01-19T02:12:23.127Z,7.23
2023-01-19T02:14:49.926Z,7.33
2023-01-19T02:17:16.252Z,8.27
2023-01-19T02:19:43.194Z,7.63
2023-01-19T02:22:14.380Z,7.30
2023-01-19T02:24:41.323Z,7.57
2023-01-19T02:27:08.121Z,7.03
2023-01-19T02:29:34.775Z,8.27
2023-01-19T02:32:02.306Z,7.10
2023-01-19T02:34:29.328Z,6.77
2023-01-19T02:36:56.755Z,7.20
2023-01-19T02:39:27.681Z,6.87
2023-01-19T02:41:58.892Z,7.10
2023-01-19T02:44:27.573Z,7.47
2023-01-19T02:46:54.064Z,7.20
2023-01-19T02:49:20.234Z,6.93
2023-01-19T02:51:46.442Z,7.50
2023-01-19T02:54:21.761Z,7.50
2023-01-19T02:56:54.693Z,7.53
2023-01-19T02:59:29.257Z,6.80
2023-01-19T03:02:03.807Z,7.97
2023-01-19T03:04:40.752Z,7.37
2023-01-19T03:07:09.908Z,7.00
2023-01-19T03:09:42.474Z,7.00
2023-01-19T03:12:11.742Z,7.20
2023-01-19T03:14:42.133Z,6.47
2023-01-19T03:17:09.680Z,7.07
2023-01-19T03:19:38.650Z,6.47
2023-01-19T03:22:08.925Z,7.03
2023-01-19T03:24:39.258Z,7.10
2023-01-19T03:27:09.317Z,6.70
2023-01-19T03:29:36.693Z,6.40
2023-01-19T03:32:06.905Z,7.43
2023-01-19T03:34:33.765Z,7.03
2023-01-19T03:37:03.112Z,7.37
2023-01-19T03:39:29.424Z,7.50
2023-01-19T03:41:58.099Z,6.60
2023-01-19T03:44:25.930Z,7.00
2023-01-19T03:46:52.151Z,6.47
2023-01-19T03:49:19.210Z,6.87
2023-01-19T03:51:45.783Z,6.63
2023-01-19T03:54:14.459Z,7.13
2023-01-19T03:56:41.763Z,7.33
2023-01-19T03:59:07.947Z,6.80
2023-01-19T04:01:34.231Z,7.33
2023-01-19T04:04:00.546Z,7.47
2023-01-19T04:06:27.376Z,7.77
2023-01-19T04:08:54.003Z,8.10
2023-01-19T04:11:20.217Z,7.03
2023-01-19T04:13:50.630Z,6.80
2023-01-19T04:16:20.064Z,6.97
2023-01-19T04:18:46.577Z,7.23
2023-01-19T04:21:12.715Z,7.57
2023-01-19T04:23:39.518Z,7.70
2023-01-19T04:26:06.832Z,7.43
2023-01-19T04:28:34.497Z,7.60
2023-01-19T04:31:03.268Z,7.83
2023-01-19T04:33:29.450Z,8.73
2023-01-19T04:35:55.697Z,8.37
2023-01-19T04:38:22.221Z,8.33
2023-01-19T04:40:49.782Z,8.17
2023-01-19T04:43:16.165Z,7.23
2023-01-19T04:45:43.926Z,8.43
2023-01-19T04:48:10.932Z,7.90
2023-01-19T04:50:37.287Z,8.13
2023-01-19T04:53:03.572Z,8.43
2023-01-19T04:55:30.014Z,8.07
2023-01-19T04:57:57.118Z,8.03
2023-01-19T05:00:23.293Z,9.07
2023-01-19T05:02:49.488Z,8.83
2023-01-19T05:05:15.733Z,9.27
2023-01-19T05:07:42.703Z,8.53
2023-01-19T05:10:10.312Z,9.60
2023-01-19T05:12:36.794Z,9.27
2023-01-19T05:15:04.465Z,8.87
2023-01-19T05:17:30.729Z,8.83
2023-01-19T05:19:56.902Z,9.63
2023-01-19T05:22:23.793Z,9.10
2023-01-19T05:24:49.930Z,9.00
2023-01-19T05:27:16.098Z,10.07
2023-01-19T05:29:42.255Z,10.13
2023-01-19T05:32:09.154Z,10.00
2023-01-19T05:34:35.336Z,10.20
2023-01-19T05:37:01.482Z,9.60
2023-01-19T05:39:28.803Z,9.30
2023-01-19T05:41:55.383Z,9.50
2023-01-19T05:44:21.911Z,10.60
2023-01-19T05:46:48.114Z,10.50
2023-01-19T05:49:17.280Z,10.63
2023-01-19T05:51:44.658Z,10.50
2023-01-19T05:54:13.648Z,11.07
2023-01-19T05:56:39.869Z,10.20
2023-01-19T05:59:06.039Z,10.43
2023-01-19T06:01:34.045Z,10.13
2023-01-19T06:04:00.266Z,10.50
2023-01-19T06:06:27.061Z,10.53
2023-01-19T06:08:53.251Z,10.20
2023-01-19T06:11:20.217Z,10.23
2023-01-19T06:13:48.099Z,10.23
2023-01-19T06:16:14.267Z,10.43
2023-01-19T06:18:40.511Z,9.83
2023-01-19T06:21:08.580Z,9.80
2023-01-19T06:23:36.132Z,9.53
2023-01-19T06:26:02.591Z,9.27
2023-01-19T06:28:28.780Z,8.77
2023-01-19T06:30:55.624Z,8.77
2023-01-19T06:33:23.597Z,8.87
2023-01-19T06:35:50.954Z,8.23
2023-01-19T06:38:18.484Z,8.70
2023-01-19T06:40:45.749Z,8.77
2023-01-19T06:43:12.212Z,7.30
2023-01-19T06:45:38.553Z,7.80
2023-01-19T06:48:05.173Z,7.77
2023-01-19T06:50:31.366Z,7.93
2023-01-19T06:52:57.510Z,8.07
2023-01-19T06:55:23.658Z,9.27
2023-01-19T06:57:59.345Z,8.00
2023-01-19T07:00:25.904Z,8.43
2023-01-19T07:02:52.364Z,8.43
2023-01-19T07:05:18.598Z,9.57
2023-01-19T07:07:45.015Z,9.30
2023-01-19T07:10:12.274Z,9.00
2023-01-19T07:12:38.781Z,9.70
2023-01-19T07:15:08.683Z,9.90
2023-01-19T07:17:34.822Z,9.80
2023-01-19T07:20:01.304Z,8.57
2023-01-19T07:22:27.431Z,9.67
2023-01-19T07:24:53.555Z,9.33
2023-01-19T07:27:19.735Z,10.50
2023-01-19T07:29:46.032Z,10.03
2023-01-19T07:32:12.918Z,9.60
2023-01-19T07:34:39.202Z,11.30
2023-01-19T07:37:05.393Z,10.10
2023-01-19T07:39:31.693Z,10.67
2023-01-19T07:41:57.911Z,9.87
2023-01-19T07:44:24.162Z,11.27
2023-01-19T07:46:50.574Z,10.63
2023-01-19T07:49:17.365Z,11.47
2023-01-19T07:51:43.542Z,10.77
2023-01-19T07:54:09.880Z,12.07
2023-01-19T07:56:35.992Z,11.47
2023-01-19T07:59:02.159Z,11.50
2023-01-19T08:01:28.847Z,12.07
2023-01-19T08:03:55.261Z,11.33
2023-01-19T08:06:23.411Z,11.37
2023-01-19T08:08:49.815Z,12.33
2023-01-19T08:11:16.037Z,11.87
2023-01-19T08:13:42.537Z,11.27
2023-01-19T08:16:08.878Z,11.47
2023-01-19T08:18:35.236Z,11.17
2023-01-19T08:21:04.357Z,10.93
2023-01-19T08:23:31.215Z,12.53
2023-01-19T08:25:57.374Z,11.97
2023-01-19T08:28:23.640Z,12.23
2023-01-19T08:30:53.208Z,11.80
2023-01-19T08:33:19.786Z,11.30
2023-01-19T08:35:48.837Z,10.90
2023-01-19T08:38:16.113Z,11.47
2023-01-19T08:40:43.173Z,11.33
2023-01-19T08:43:11.109Z,12.20
2023-01-19T08:45:40.613Z,12.20
2023-01-19T08:48:06.954Z,12.00
2023-01-19T08:50:33.873Z,11.63
2023-01-19T08:53:02.197Z,11.43
2023-01-19T08:55:29.087Z,12.40
2023-01-19T08:57:57.005Z,12.90
2023-01-19T09:00:24.325Z,13.33
2023-01-19T09:02:50.952Z,13.40
2023-01-19T09:05:17.296Z,13.13
2023-01-19T09:07:44.729Z,14.30
2023-01-19T09:10:11.421Z,13.17
2023-01-19T09:12:37.646Z,14.00
2023-01-19T09:15:16.644Z,13.57
2023-01-19T09:17:42.772Z,13.33
2023-01-19T09:20:10.134Z,13.80
2023-01-19T09:22:36.355Z,15.50
2023-01-19T09:25:02.620Z,14.70
2023-01-19T09:27:28.734Z,14.53
2023-01-19T09:29:54.835Z,15.57
2023-01-19T09:32:22.151Z,15.30
2023-01-19T09:34:48.277Z,16.17
2023-01-19T09:37:15.356Z,15.97
2023-01-19T09:39:41.559Z,15.77
2023-01-19T09:42:14.192Z,17.17
2023-01-19T09:44:40.675Z,17.70
2023-01-19T09:47:14.145Z,16.73
2023-01-19T09:49:43.355Z,17.20
2023-01-19T09:52:10.838Z,17.13
2023-01-19T09:54:43.524Z,17.87
2023-01-19T09:57:10.215Z,16.53
2023-01-19T09:59:37.914Z,17.50
2023-01-19T10:02:19.168Z,16.77
2023-01-19T10:04:52.210Z,16.70
2023-01-19T10:07:32.305Z,16.87
2023-01-19T10:10:11.714Z,17.40
2023-01-19T10:12:43.367Z,17.43
2023-01-19T10:15:17.087Z,17.57
2023-01-19T10:17:51.888Z,17.70
2023-01-19T10:20:25.273Z,18.63
2023-01-19T10:22:51.392Z,18.80
2023-01-19T10:25:19.766Z,18.40
2023-01-19T10:27:46.471Z,17.57
2023-01-19T10:30:17.570Z,18.60
2023-01-19T10:32:44.814Z,18.10
2023-01-19T10:35:20.836Z,18.70
2023-01-19T10:37:48.063Z,18.83
2023-01-19T10:40:20.173Z,18.87
2023-01-19T10:42:46.310Z,19.83
2023-01-19T10:45:15.634Z,19.57
2023-01-19T10:47:42.410Z,19.67
2023-01-19T10:50:23.484Z,18.57
2023-01-19T10:52:51.361Z,18.93
2023-01-19T10:55:25.069Z,19.27
2023-01-19T10:57:52.694Z,18.37
2023-01-19T11:00:31.313Z,19.83
2023-01-19T11:02:57.522Z,17.60
2023-01-19T11:05:25.759Z,18.83
2023-01-19T11:07:52.506Z,18.80
2023-01-19T11:10:23.753Z,20.20
2023-01-19T11:13:00.742Z,18.50
2023-01-19T11:15:32.570Z,19.43
2023-01-19T11:17:59.117Z,20.20
2023-01-19T11:20:28.647Z,19.17
2023-01-19T11:23:07.075Z,18.90
2023-01-19T11:25:35.190Z,19.53
2023-01-19T11:28:01.852Z,18.53
2023-01-19T11:30:28.631Z,17.60
2023-01-19T11:32:55.545Z,18.27
2023-01-19T11:35:34.285Z,18.80
2023-01-19T11:38:18.100Z,17.67
2023-01-19T11:40:51.184Z,18.80
2023-01-19T11:43:17.440Z,17.90
2023-01-19T11:45:43.967Z,17.83
2023-01-19T11:48:16.787Z,18.27
2023-01-19T11:50:44.417Z,18.50
2023-01-19T11:53:14.406Z,17.80
2023-01-19T11:55:47.101Z,17.53
2023-01-19T11:58:15.079Z,17.73
2023-01-19T12:00:44.309Z,17.67
2023-01-19T12:03:15.172Z,18.60
2023-01-19T12:05:44.009Z,19.27
2023-01-19T12:08:14.806Z,18.40
2023-01-19T12:10:44.644Z,18.93
2023-01-19T12:13:18.678Z,18.80
2023-01-19T12:15:45.624Z,17.97
2023-01-19T12:18:16.861Z,18.13
2023-01-19T12:20:45.261Z,19.60
2023-01-19T12:23:20.341Z,18.50
2023-01-19T12:25:58.180Z,17.93
2023-01-19T12:28:28.411Z,17.30
2023-01-19T12:30:55.055Z,16.83
2023-01-19T12:33:23.270Z,16.63
2023-01-19T12:35:57.580Z,15.93
2023-01-19T12:38:47.579Z,16.67
2023-01-19T12:41:22.297Z,16.33
2023-01-19T12:44:04.931Z,15.30
2023-01-19T12:46:31.459Z,15.10
2023-01-19T12:49:04.896Z,15.23
2023-01-19T12:51:31.647Z,14.87
2023-01-19T12:53:58.761Z,14.63
2023-01-19T12:56:30.445Z,15.93
2023-01-19T12:58:56.648Z,16.57
2023-01-19T13:01:24.069Z,16.30
2023-01-19T13:04:02.088Z,16.70
2023-01-19T13:07:05.044Z,17.03
2023-01-19T13:09:31.643Z,16.17
2023-01-19T13:12:20.921Z,17.60
2023-01-19T13:14:47.314Z,16.03
2023-01-19T13:17:32.950Z,15.50
2023-01-19T13:20:18.751Z,15.20
2023-01-19T13:23:17.935Z,14.83
2023-01-19T13:25:47.561Z,15.93
2023-01-19T13:28:16.426Z,14.87
2023-01-19T13:30:53.740Z,14.57
2023-01-19T13:33:22.363Z,15.03
2023-01-19T13:35:53.662Z,14.83
2023-01-19T13:38:20.905Z,13.70
2023-01-19T13:40:47.260Z,14.70
2023-01-19T13:43:17.987Z,13.27
2023-01-19T13:45:50.316Z,13.73
2023-01-19T13:48:21.330Z,13.77
2023-01-19T13:51:16.656Z,13.83
2023-01-19T13:53:53.156Z,14.00
2023-01-19T13:56:22.359Z,13.93
2023-01-19T13:58:59.961Z,13.57
2023-01-19T14:01:29.125Z,14.23
2023-01-19T14:03:55.668Z,13.60
2023-01-19T14:06:32.834Z,14.63
2023-01-19T14:09:06.120Z,14.70
2023-01-19T14:11:32.234Z,14.63
2023-01-19T14:13:58.999Z,15.17
2023-01-19T14:16:25.240Z,14.37
2023-01-19T14:18:58.858Z,14.80
2023-01-19T14:21:24.968Z,14.63
2023-01-19T14:23:53.621Z,14.53
2023-01-19T14:26:42.762Z,14.53
2023-01-19T14:29:26.261Z,13.53
2023-01-19T14:32:04.873Z,13.37
2023-01-19T14:34:37.926Z,13.07
2023-01-19T14:37:11.717Z,13.40
2023-01-19T14:39:37.833Z,13.40
2023-01-19T14:42:04.827Z,13.20
2023-01-19T14:44:34.537Z,12.63
2023-01-19T14:47:01.167Z,12.33
2023-01-19T14:49:31.923Z,13.03
2023-01-19T14:52:00.492Z,14.17
2023-01-19T14:54:33.304Z,13.57
2023-01-19T14:56:59.449Z,13.37
2023-01-19T14:59:25.566Z,13.43
2023-01-19T15:01:52.625Z,14.00
2023-01-19T15:04:18.801Z,13.33
2023-01-19T15:06:45.257Z,13.23
2023-01-19T15:09:12.146Z,13.30
2023-01-19T15:11:38.486Z,13.30
2023-01-19T15:14:04.626Z,13.80
2023-01-19T15:16:33.249Z,12.97
2023-01-19T15:19:00.268Z,13.63
2023-01-19T15:21:26.393Z,13.30
2023-01-19T15:23:53.331Z,12.87
2023-01-19T15:26:21.056Z,13.33
2023-01-19T15:28:48.377Z,12.37
2023-01-19T15:31:15.442Z,12.97
2023-01-19T15:33:41.654Z,12.83
2023-01-19T15:36:11.878Z,13.87
2023-01-19T15:38:37.979Z,12.73
2023-01-19T15:41:10.789Z,13.40
2023-01-19T15:43:36.886Z,13.30
2023-01-19T15:46:05.311Z,13.30
2023-01-19T15:48:31.715Z,13.43
2023-01-19T15:50:57.849Z,14.13
2023-01-19T15:53:26.358Z,12.97
2023-01-19T15:55:54.698Z,15.27
2023-01-19T15:58:22.626Z,14.67
2023-01-19T16:00:52.578Z,9.77
2023-01-19T16:03:18.735Z,18.00
2023-01-19T16:05:45.907Z,14.30
2023-01-19T16:08:12.091Z,12.30
2023-01-19T16:10:39.284Z,11.93
2023-01-19T16:13:05.432Z,11.93
2023-01-19T16:15:33.924Z,12.93
2023-01-19T16:18:00.103Z,12.87
2023-01-19T16:20:26.271Z,12.97
2023-01-19T16:22:53.754Z,12.63
2023-01-19T16:25:22.663Z,12.47
2023-01-19T16:27:49.471Z,12.63
2023-01-19T16:30:18.472Z,12.40
2023-01-19T16:32:45.027Z,11.03
2023-01-19T16:35:12.012Z,11.37
2023-01-19T16:37:40.856Z,13.10
2023-01-19T16:40:08.343Z,11.07
2023-01-19T16:42:34.685Z,11.77
2023-01-19T16:45:01.433Z,11.77
2023-01-19T16:47:27.600Z,11.93
2023-01-19T16:49:54.159Z,11.67
2023-01-19T16:52:20.361Z,11.73
2023-01-19T16:54:46.501Z,11.23
2023-01-19T16:57:13.952Z,11.53
2023-01-19T16:59:40.589Z,12.10
2023-01-19T17:02:08.907Z,12.03
2023-01-19T17:04:35.129Z,11.93
2023-01-19T17:07:01.239Z,13.10
2023-01-19T17:09:27.357Z,12.20
2023-01-19T17:11:53.563Z,12.83
2023-01-19T17:14:19.987Z,12.77
2023-01-19T17:16:46.582Z,13.07
2023-01-19T17:19:15.651Z,12.53
2023-01-19T17:21:43.190Z,12.57
2023-01-19T17:24:09.943Z,12.77
2023-01-19T17:26:36.095Z,12.07
2023-01-19T17:29:04.886Z,12.30
2023-01-19T17:31:31.475Z,10.70
2023-01-19T17:33:58.460Z,11.17
2023-01-19T17:36:26.849Z,11.13
2023-01-19T17:38:54.419Z,12.00
2023-01-19T17:41:23.017Z,12.00
2023-01-19T17:47:52.325Z,10.17
2023-01-19T17:50:18.415Z,10.87
2023-01-19T17:52:45.151Z,12.10
2023-01-19T17:55:11.281Z,11.87
2023-01-19T17:57:38.057Z,10.30
2023-01-19T18:00:05.258Z,11.53
2023-01-19T18:02:31.396Z,10.87
2023-01-19T18:04:59.910Z,11.20
2023-01-19T18:07:27.785Z,11.53
2023-01-19T18:09:56.191Z,10.50
2023-01-19T18:12:22.710Z,12.17
2023-01-19T18:14:49.560Z,11.03
2023-01-19T18:17:15.673Z,10.50
2023-01-19T18:19:41.791Z,10.67
2023-01-19T18:22:07.893Z,10.50
2023-01-19T18:24:34.460Z,12.23
2023-01-19T18:27:01.266Z,18.13
2023-01-19T18:29:27.434Z,19.13
2023-01-19T18:31:53.814Z,14.07
2023-01-19T18:34:19.990Z,15.27
2023-01-19T18:36:46.277Z,14.03
2023-01-19T18:39:12.530Z,16.30
2023-01-19T18:41:41.451Z,15.67
2023-01-19T18:44:09.101Z,15.20
2023-01-19T18:46:36.290Z,13.67
2023-01-19T18:49:02.782Z,13.70
2023-01-19T18:51:28.958Z,13.30
2023-01-19T18:53:55.902Z,13.80
2023-01-19T18:56:21.989Z,12.23
2023-01-19T18:58:48.572Z,12.40
2023-01-19T19:01:21.324Z,14.27
2023-01-19T19:03:47.603Z,14.17
2023-01-19T19:06:14.873Z,13.67
2023-01-19T19:08:46.471Z,13.87
2023-01-19T19:11:14.157Z,13.63
2023-01-19T19:13:40.457Z,13.37
2023-01-19T19:16:08.179Z,13.60
2023-01-19T19:18:36.118Z,13.03
2023-01-19T19:21:03.997Z,13.80
2023-01-19T19:23:30.387Z,13.67
2023-01-19T19:26:01.119Z,16.43
2023-01-19T19:28:27.216Z,14.30
2023-01-19T19:31:02.128Z,16.40
2023-01-19T19:33:28.305Z,15.80
2023-01-19T19:35:56.658Z,14.80
2023-01-19T19:42:37.795Z,13.13
2023-01-19T19:45:04.717Z,12.87
2023-01-19T19:47:31.007Z,12.23
2023-01-19T19:49:58.323Z,12.43
2023-01-19T19:52:26.927Z,12.10
2023-01-19T19:54:53.102Z,12.10
2023-01-19T19:57:19.350Z,10.67
2023-01-19T19:59:45.510Z,11.40
2023-01-19T20:02:11.782Z,11.03
2023-01-19T20:04:38.000Z,10.80
2023-01-19T20:07:04.234Z,11.17
2023-01-19T20:09:31.961Z,10.40
2023-01-19T20:11:58.127Z,11.83
2023-01-19T20:14:24.280Z,10.77
2023-01-19T20:16:50.523Z,11.23
2023-01-19T20:19:17.509Z,11.90
2023-01-19T20:21:43.857Z,10.97
2023-01-19T20:24:13.108Z,11.33
2023-01-19T20:26:41.807Z,11.07
2023-01-19T20:29:09.425Z,11.03
2023-01-19T20:31:37.705Z,11.63
2023-01-19T20:34:06.142Z,11.93
2023-01-19T20:36:32.279Z,11.53
2023-01-19T20:38:58.638Z,11.40
2023-01-19T20:41:25.759Z,12.53
2023-01-19T20:43:52.881Z,11.93
2023-01-19T20:46:19.101Z,11.30
2023-01-19T20:48:49.895Z,12.33
2023-01-19T20:51:17.330Z,12.90
2023-01-19T20:53:43.441Z,12.00
2023-01-19T20:56:11.706Z,12.57
2023-01-19T20:58:38.200Z,12.37
2023-01-19T21:01:10.698Z,11.27
2023-01-19T21:03:36.990Z,12.70
2023-01-19T21:06:03.187Z,12.63
2023-01-19T21:08:29.329Z,12.63
2023-01-19T21:10:55.559Z,12.03
2023-01-19T21:13:21.724Z,11.90
2023-01-19T21:15:47.816Z,11.30
2023-01-19T21:18:14.633Z,12.27
2023-01-19T21:20:40.756Z,10.77
2023-01-19T21:23:06.890Z,11.50
2023-01-19T21:25:33.099Z,11.27
2023-01-19T21:27:59.225Z,12.40
2023-01-19T21:30:25.381Z,11.97
2023-01-19T21:32:51.510Z,13.10
2023-01-19T21:35:18.252Z,12.80
2023-01-19T21:37:44.394Z,12.23
2023-01-19T21:40:12.012Z,12.90
2023-01-19T21:42:39.518Z,13.17
2023-01-19T21:45:06.963Z,12.33
2023-01-19T21:47:34.063Z,12.70
2023-01-19T21:50:00.548Z,11.03
2023-01-19T21:52:27.329Z,11.90
2023-01-19T21:54:53.459Z,11.20
2023-01-19T21:57:19.748Z,10.97
2023-01-19T21:59:45.890Z,11.87
2023-01-19T22:02:12.176Z,10.87
2023-01-19T22:04:38.656Z,10.23
2023-01-19T22:07:04.824Z,10.07
2023-01-19T22:09:33.831Z,10.63
2023-01-19T22:12:00.092Z,9.80
2023-01-19T22:14:26.769Z,10.20
2023-01-19T22:16:53.005Z,10.33
2023-01-19T22:19:19.743Z,10.83
2023-01-19T22:21:46.304Z,10.03
2023-01-19T22:24:12.424Z,10.23
2023-01-19T22:26:39.154Z,10.30
2023-01-19T22:29:10.204Z,9.93
2023-01-19T22:31:37.776Z,9.80
2023-01-19T22:34:09.027Z,10.97
2023-01-19T22:36:35.621Z,10.73
2023-01-19T22:39:04.100Z,11.50
2023-01-19T22:41:32.009Z,11.07
2023-01-19T22:43:59.792Z,11.30
2023-01-19T22:46:27.881Z,10.20
2023-01-19T22:48:55.334Z,10.17
2023-01-19T22:51:22.733Z,10.37
2023-01-19T22:53:48.878Z,10.47
2023-01-19T22:56:17.411Z,10.70
2023-01-19T22:58:44.225Z,10.87
2023-01-19T23:01:12.979Z,10.87
2023-01-19T23:03:39.397Z,11.03
2023-01-19T23:06:08.936Z,11.50
2023-01-19T23:08:35.453Z,10.77
2023-01-19T23:11:04.583Z,10.73
2023-01-19T23:13:30.713Z,11.53
2023-01-19T23:15:56.931Z,11.43
2023-01-19T23:18:23.812Z,11.37
2023-01-19T23:20:49.981Z,11.57
2023-01-19T23:23:16.097Z,11.50
2023-01-19T23:25:42.313Z,11.87
2023-01-19T23:28:08.474Z,12.17
2023-01-19T23:30:34.724Z,11.80
2023-01-19T23:33:00.879Z,11.37
2023-01-19T23:35:27.657Z,11.73
2023-01-19T23:37:53.769Z,12.30
2023-01-19T23:40:19.923Z,11.27
2023-01-19T23:42:46.020Z,11.60
2023-01-19T23:45:12.495Z,11.87
2023-01-19T23:47:42.373Z,11.63
2023-01-19T23:50:09.443Z,11.73
2023-01-19T23:52:36.186Z,11.67
2023-01-19T23:55:02.418Z,12.53
2023-01-19T23:57:29.745Z,12.10
2023-01-19T23:59:55.882Z,12.77
